createdAt,value
2019-03-12T00:02:08.104Z,3.30
2019-03-12T00:04:37.856Z,3.30
2019-03-12T00:07:08.682Z,3.40
2019-03-12T00:09:39.785Z,3.30
2019-03-12T00:12:09.853Z,3.30
2019-03-12T00:14:39.566Z,3.30
2019-03-12T00:17:09.204Z,3.30
2019-03-12T00:19:38.943Z,3.10
2019-03-12T00:22:08.804Z,3.10
2019-03-12T00:24:38.530Z,3.00
2019-03-12T00:27:09.504Z,3.00
2019-03-12T00:29:39.371Z,3.00
2019-03-12T00:32:09.283Z,3.00
2019-03-12T00:34:39.195Z,2.90
2019-03-12T00:37:08.993Z,2.90
2019-03-12T00:39:38.747Z,2.80
2019-03-12T00:42:08.513Z,2.90
2019-03-12T00:44:38.450Z,2.80
2019-03-12T00:47:08.247Z,2.80
2019-03-12T00:49:37.988Z,2.90
2019-03-12T00:52:10.392Z,2.80
2019-03-12T00:54:40.244Z,2.80
2019-03-12T00:57:09.975Z,2.90
2019-03-12T00:59:39.954Z,2.90
2019-03-12T01:02:09.831Z,2.90
2019-03-12T01:04:39.914Z,2.80
2019-03-12T01:07:11.708Z,2.80
2019-03-12T01:09:41.360Z,2.80
2019-03-12T01:12:11.486Z,2.80
2019-03-12T01:14:41.364Z,2.80
2019-03-12T01:17:13.917Z,2.80
2019-03-12T01:19:43.794Z,2.70
2019-03-12T01:22:13.751Z,2.70
2019-03-12T01:24:43.830Z,2.70
2019-03-12T01:27:14.034Z,2.70
2019-03-12T01:29:43.679Z,2.70
2019-03-12T01:32:13.644Z,2.70
2019-03-12T01:34:43.595Z,2.60
2019-03-12T01:37:13.383Z,2.70
2019-03-12T01:40:02.150Z,2.80
2019-03-12T01:42:31.921Z,2.80
2019-03-12T01:45:07.428Z,2.80
2019-03-12T01:47:37.290Z,2.80
2019-03-12T01:50:07.518Z,2.80
2019-03-12T01:52:41.000Z,2.90
2019-03-12T01:55:12.605Z,2.90
2019-03-12T01:58:01.329Z,2.90
2019-03-12T02:00:32.329Z,2.90
2019-03-12T02:03:03.891Z,2.90
2019-03-12T02:05:33.623Z,2.90
2019-03-12T02:08:03.516Z,2.90
2019-03-12T02:10:33.209Z,3.00
2019-03-12T02:13:02.856Z,2.90
2019-03-12T02:15:32.844Z,2.90
2019-03-12T02:18:02.898Z,2.90
2019-03-12T02:20:33.903Z,2.90
2019-03-12T02:23:03.837Z,2.90
2019-03-12T02:25:33.491Z,3.00
2019-03-12T02:28:03.262Z,3.10
2019-03-12T02:30:33.250Z,3.10
2019-03-12T02:33:04.173Z,3.20
2019-03-12T02:35:33.934Z,3.20
2019-03-12T02:38:06.892Z,3.20
2019-03-12T02:40:37.781Z,3.20
2019-03-12T02:43:08.711Z,3.10
2019-03-12T02:45:39.700Z,3.10
2019-03-12T02:48:12.520Z,3.10
2019-03-12T02:50:42.388Z,3.10
2019-03-12T02:53:12.188Z,3.00
2019-03-12T02:55:42.102Z,3.10
2019-03-12T02:58:19.752Z,3.10
2019-03-12T03:00:49.594Z,3.10
2019-03-12T03:03:19.375Z,3.20
2019-03-12T03:05:56.065Z,3.20
2019-03-12T03:08:29.497Z,3.20
2019-03-12T03:11:00.566Z,3.10
2019-03-12T03:13:32.287Z,3.20
2019-03-12T03:16:02.222Z,3.20
2019-03-12T03:18:34.806Z,3.20
2019-03-12T03:21:04.620Z,3.20
2019-03-12T03:23:34.240Z,3.20
2019-03-12T03:26:07.113Z,3.30
2019-03-12T03:28:38.057Z,3.30
2019-03-12T03:31:07.677Z,3.40
2019-03-12T03:33:37.581Z,3.40
2019-03-12T03:36:07.407Z,3.40
2019-03-12T03:38:37.414Z,3.40
2019-03-12T03:41:07.837Z,3.40
2019-03-12T03:43:37.778Z,3.50
2019-03-12T03:46:10.465Z,3.50
2019-03-12T03:48:42.321Z,3.60
2019-03-12T03:51:13.145Z,3.60
2019-03-12T03:53:47.716Z,3.60
2019-03-12T03:56:17.514Z,3.50
2019-03-12T03:58:47.271Z,3.60
2019-03-12T04:01:17.135Z,3.60
2019-03-12T04:03:49.708Z,3.70
2019-03-12T04:06:19.597Z,3.60
2019-03-12T04:08:51.619Z,3.70
2019-03-12T04:11:21.491Z,3.70
2019-03-12T04:13:51.300Z,3.80
2019-03-12T04:16:23.874Z,3.80
2019-03-12T04:18:53.720Z,3.70
2019-03-12T04:21:24.646Z,3.60
2019-03-12T04:23:54.523Z,3.40
2019-03-12T04:26:26.838Z,3.40
2019-03-12T04:28:59.648Z,3.40
2019-03-12T04:31:36.865Z,3.30
2019-03-12T04:34:21.427Z,3.30
2019-03-12T04:36:54.649Z,3.30
2019-03-12T04:39:25.784Z,3.20
2019-03-12T04:41:55.760Z,3.30
2019-03-12T04:44:25.534Z,3.30
2019-03-12T04:46:56.630Z,3.30
2019-03-12T04:49:28.313Z,3.40
2019-03-12T04:51:58.085Z,3.40
2019-03-12T04:54:27.782Z,3.50
2019-03-12T04:56:57.545Z,3.50
2019-03-12T04:59:27.376Z,3.50
2019-03-12T05:01:57.287Z,3.50
2019-03-12T05:04:28.218Z,3.60
2019-03-12T05:06:59.373Z,3.60
2019-03-12T05:09:30.393Z,3.60
2019-03-12T05:11:59.987Z,3.70
2019-03-12T05:14:34.045Z,3.70
2019-03-12T05:17:08.990Z,3.60
2019-03-12T05:19:41.525Z,3.60
2019-03-12T05:22:11.698Z,3.60
2019-03-12T05:24:41.879Z,3.70
2019-03-12T05:27:11.878Z,3.70
2019-03-12T05:29:41.888Z,3.70
2019-03-12T05:32:11.938Z,3.70
2019-03-12T05:34:41.751Z,3.70
2019-03-12T05:37:11.931Z,3.80
2019-03-12T05:39:44.506Z,3.70
2019-03-12T05:42:19.583Z,3.70
2019-03-12T05:44:56.056Z,3.80
2019-03-12T05:47:26.068Z,3.70
2019-03-12T05:50:05.259Z,3.70
2019-03-12T05:52:35.188Z,3.70
2019-03-12T05:55:05.310Z,3.60
2019-03-12T05:57:35.121Z,3.70
2019-03-12T06:00:14.768Z,3.60
2019-03-12T06:03:10.181Z,3.60
2019-03-12T06:05:28.467Z,3.60
2019-03-12T06:08:01.172Z,3.50
2019-03-12T06:10:31.310Z,3.50
2019-03-12T06:13:05.869Z,3.50
2019-03-12T06:15:35.586Z,3.50
2019-03-12T06:18:05.365Z,3.50
2019-03-12T06:20:37.289Z,3.60
2019-03-12T06:23:15.719Z,3.60
2019-03-12T06:25:45.547Z,3.60
2019-03-12T06:28:15.320Z,3.60
2019-03-12T06:31:33.709Z,3.60
2019-03-12T06:34:17.946Z,3.70
2019-03-12T06:37:01.610Z,3.70
2019-03-12T06:40:01.670Z,3.60
2019-03-12T06:42:45.223Z,3.60
2019-03-12T06:45:23.250Z,3.60
2019-03-12T06:48:43.185Z,3.70
2019-03-12T06:51:34.561Z,3.70
2019-03-12T06:54:18.178Z,3.70
2019-03-12T06:57:18.625Z,3.80
2019-03-12T07:00:16.657Z,3.80
2019-03-12T07:03:08.795Z,3.80
2019-03-12T07:05:53.898Z,3.80
2019-03-12T07:08:53.040Z,3.80
2019-03-12T07:11:54.560Z,3.80
2019-03-12T07:14:32.613Z,3.80
2019-03-12T07:17:06.998Z,3.90
2019-03-12T07:20:00.205Z,3.90
2019-03-12T07:22:39.542Z,3.90
2019-03-12T07:25:27.312Z,3.80
2019-03-12T07:28:08.885Z,3.80
2019-03-12T07:31:00.900Z,3.80
2019-03-12T07:33:48.449Z,3.70
2019-03-12T07:36:46.148Z,3.70
2019-03-12T07:39:58.020Z,3.70
2019-03-12T07:43:01.936Z,3.80
2019-03-12T07:45:36.552Z,3.80
2019-03-12T07:48:36.305Z,3.80
2019-03-12T07:51:32.024Z,3.90
2019-03-12T07:54:39.047Z,3.90
2019-03-12T07:57:21.445Z,4.00
2019-03-12T08:00:27.901Z,4.00
2019-03-12T08:03:09.181Z,3.90
2019-03-12T08:06:01.126Z,4.00
2019-03-12T08:08:44.078Z,4.00
2019-03-12T08:11:39.445Z,4.00
2019-03-12T08:14:34.256Z,4.00
2019-03-12T08:17:41.211Z,4.00
2019-03-12T08:20:28.932Z,3.90
2019-03-12T08:23:18.891Z,3.80
2019-03-12T08:26:04.926Z,3.90
2019-03-12T08:28:43.599Z,3.90
2019-03-12T08:31:32.026Z,4.00
2019-03-12T08:34:26.623Z,4.00
2019-03-12T08:37:24.156Z,3.90
2019-03-12T08:40:12.794Z,3.80
2019-03-12T08:43:16.596Z,3.90
2019-03-12T08:46:18.363Z,3.90
2019-03-12T08:48:58.900Z,4.00
2019-03-12T08:52:00.827Z,4.10
2019-03-12T08:55:04.597Z,4.20
2019-03-12T08:57:48.362Z,4.30
2019-03-12T09:00:43.071Z,4.50
2019-03-12T09:03:28.124Z,4.50
2019-03-12T09:06:15.626Z,4.50
2019-03-12T09:09:13.591Z,4.50
2019-03-12T09:12:05.023Z,4.50
2019-03-12T09:14:51.320Z,4.60
2019-03-12T09:17:36.658Z,4.60
2019-03-12T09:20:33.374Z,4.70
2019-03-12T09:23:23.614Z,4.70
2019-03-12T09:26:15.356Z,4.70
2019-03-12T09:28:51.865Z,4.70
2019-03-12T09:31:38.016Z,4.70
2019-03-12T09:34:39.966Z,4.60
2019-03-12T09:37:29.984Z,4.60
2019-03-12T09:40:11.377Z,4.50
2019-03-12T09:43:00.277Z,4.60
2019-03-12T09:45:46.112Z,4.60
2019-03-12T09:48:45.289Z,4.60
2019-03-12T09:51:19.111Z,4.70
2019-03-12T09:54:08.893Z,4.70
2019-03-12T09:56:54.600Z,4.70
2019-03-12T09:59:40.432Z,4.60
2019-03-12T10:02:24.187Z,4.70
2019-03-12T10:05:15.840Z,4.90
2019-03-12T10:08:07.202Z,4.90
2019-03-12T10:11:18.744Z,5.10
2019-03-12T10:14:07.360Z,5.30
2019-03-12T10:17:01.743Z,5.50
2019-03-12T10:19:40.556Z,5.50
2019-03-12T10:22:34.893Z,5.60
2019-03-12T10:25:23.973Z,5.60
2019-03-12T10:28:15.499Z,5.70
2019-03-12T10:31:10.172Z,5.70
2019-03-12T10:33:50.075Z,5.90
2019-03-12T10:36:33.463Z,5.90
2019-03-12T10:39:50.802Z,6.00
2019-03-12T10:42:39.441Z,5.90
2019-03-12T10:45:16.127Z,5.80
2019-03-12T10:47:46.271Z,5.90
2019-03-12T10:50:16.026Z,5.90
2019-03-12T10:52:45.964Z,5.90
2019-03-12T10:55:15.744Z,5.80
2019-03-12T10:57:45.346Z,5.80
2019-03-12T11:00:17.788Z,5.80
2019-03-12T11:02:47.391Z,5.90
2019-03-12T11:05:18.279Z,6.00
2019-03-12T11:07:47.981Z,6.10
2019-03-12T11:10:17.628Z,6.20
2019-03-12T11:12:50.255Z,6.30
2019-03-12T11:15:20.070Z,6.30
2019-03-12T11:17:50.502Z,6.40
2019-03-12T11:20:20.441Z,6.40
2019-03-12T11:22:50.392Z,6.30
2019-03-12T11:25:27.441Z,6.40
2019-03-12T11:27:51.518Z,6.30
2019-03-12T11:30:21.435Z,6.30
2019-03-12T11:32:51.128Z,6.40
2019-03-12T11:35:20.848Z,6.30
2019-03-12T11:37:50.618Z,6.30
2019-03-12T11:40:20.642Z,6.30
2019-03-12T11:42:50.784Z,6.40
2019-03-12T11:45:31.078Z,6.40
2019-03-12T11:47:51.894Z,6.40
2019-03-12T11:50:21.813Z,6.30
2019-03-12T11:52:56.427Z,6.30
2019-03-12T11:55:23.220Z,6.30
2019-03-12T11:57:54.317Z,6.40
2019-03-12T12:00:31.163Z,6.50
2019-03-12T12:03:01.079Z,6.70
2019-03-12T12:05:30.861Z,7.00
2019-03-12T12:08:00.615Z,7.20
2019-03-12T12:10:30.299Z,7.40
2019-03-12T12:13:00.142Z,7.40
2019-03-12T12:15:29.955Z,7.50
2019-03-12T12:17:59.772Z,7.50
2019-03-12T12:20:31.469Z,7.50
2019-03-12T12:23:01.955Z,7.30
2019-03-12T12:25:31.779Z,7.30
2019-03-12T12:28:01.872Z,7.20
2019-03-12T12:30:31.612Z,7.20
2019-03-12T12:33:01.323Z,7.50
2019-03-12T12:35:31.084Z,7.80
2019-03-12T12:38:00.955Z,8.10
2019-03-12T12:40:30.669Z,8.40
2019-03-12T12:43:00.516Z,8.70
2019-03-12T12:45:32.530Z,8.90
2019-03-12T12:48:02.279Z,9.10
2019-03-12T12:50:32.149Z,9.20
2019-03-12T12:53:05.121Z,9.30
2019-03-12T12:55:34.916Z,9.50
2019-03-12T12:58:04.939Z,9.60
2019-03-12T13:00:37.979Z,9.70
2019-03-12T13:03:08.254Z,9.60
2019-03-12T13:05:37.961Z,9.60
2019-03-12T13:08:07.752Z,9.50
2019-03-12T13:10:37.467Z,9.20
2019-03-12T13:13:07.147Z,8.70
2019-03-12T13:15:36.937Z,8.60
2019-03-12T13:18:07.149Z,8.40
2019-03-12T13:20:36.684Z,8.20
2019-03-12T13:23:06.603Z,8.10
2019-03-12T13:25:36.296Z,8.10
2019-03-12T13:28:06.071Z,8.40
2019-03-12T13:30:35.948Z,8.60
2019-03-12T13:33:05.672Z,8.90
2019-03-12T13:35:35.460Z,9.30
2019-03-12T13:38:05.443Z,9.60
2019-03-12T13:40:35.252Z,9.90
2019-03-12T13:43:05.258Z,10.00
2019-03-12T13:45:35.200Z,10.00
2019-03-12T13:48:05.040Z,10.10
2019-03-12T13:50:36.734Z,10.20
2019-03-12T13:53:11.959Z,9.90
2019-03-12T13:55:45.931Z,9.80
2019-03-12T13:58:17.817Z,9.70
2019-03-12T14:00:47.797Z,9.70
2019-03-12T14:03:17.435Z,9.70
2019-03-12T14:05:47.717Z,9.60
2019-03-12T14:08:17.375Z,9.50
2019-03-12T14:10:47.104Z,9.80
2019-03-12T14:13:16.823Z,10.10
2019-03-12T14:15:58.787Z,10.40
2019-03-12T14:18:34.202Z,10.30
2019-03-12T14:21:09.054Z,10.10
2019-03-12T14:23:51.681Z,10.20
2019-03-12T14:26:21.650Z,10.60
2019-03-12T14:28:52.537Z,11.30
2019-03-12T14:31:24.082Z,11.50
2019-03-12T14:33:53.841Z,11.20
2019-03-12T14:36:23.586Z,11.00
2019-03-12T14:38:53.385Z,10.50
2019-03-12T14:41:24.498Z,10.20
2019-03-12T14:43:54.325Z,9.90
2019-03-12T14:46:24.918Z,9.60
2019-03-12T14:48:59.992Z,9.20
2019-03-12T14:52:12.625Z,8.80
2019-03-12T14:54:42.315Z,8.70
2019-03-12T14:57:11.992Z,8.70
2019-03-12T14:59:41.692Z,8.60
2019-03-12T15:02:11.407Z,8.60
2019-03-12T15:04:41.346Z,8.60
2019-03-12T15:07:11.160Z,9.20
2019-03-12T15:09:40.918Z,9.70
2019-03-12T15:12:12.022Z,10.20
2019-03-12T15:14:50.529Z,10.40
2019-03-12T15:17:20.404Z,10.50
2019-03-12T15:19:51.020Z,10.50
2019-03-12T15:22:20.762Z,10.30
2019-03-12T15:24:50.787Z,10.60
2019-03-12T15:27:21.467Z,11.30
2019-03-12T15:29:54.137Z,12.30
2019-03-12T15:32:24.158Z,13.50
2019-03-12T15:34:53.802Z,14.40
2019-03-12T15:37:23.542Z,14.70
2019-03-12T15:39:53.339Z,15.40
2019-03-12T15:42:23.051Z,16.20
2019-03-12T15:44:52.859Z,16.40
2019-03-12T15:47:22.927Z,16.10
2019-03-12T15:49:52.682Z,15.00
2019-03-12T15:52:22.476Z,14.30
2019-03-12T15:54:52.088Z,13.00
2019-03-12T15:57:21.843Z,11.90
2019-03-12T15:59:51.528Z,11.40
2019-03-12T16:02:21.263Z,11.00
2019-03-12T16:04:51.040Z,10.60
2019-03-12T16:07:20.804Z,10.30
2019-03-12T16:09:50.573Z,10.00
2019-03-12T16:12:20.196Z,9.70
2019-03-12T16:14:49.973Z,9.50
2019-03-12T16:17:19.635Z,9.30
2019-03-12T16:19:49.469Z,8.90
2019-03-12T16:22:19.254Z,8.80
2019-03-12T16:24:48.973Z,8.70
2019-03-12T16:27:18.750Z,8.60
2019-03-12T16:29:50.075Z,8.50
2019-03-12T16:32:19.831Z,8.50
2019-03-12T16:34:49.554Z,8.40
2019-03-12T16:37:25.840Z,8.40
2019-03-12T16:39:55.535Z,8.30
2019-03-12T16:42:34.625Z,8.30
2019-03-12T16:44:56.580Z,8.20
2019-03-12T16:47:26.261Z,8.20
2019-03-12T16:49:55.957Z,8.20
2019-03-12T16:52:26.339Z,8.20
2019-03-12T16:54:55.980Z,8.20
2019-03-12T16:57:25.699Z,8.10
2019-03-12T16:59:55.440Z,8.10
2019-03-12T17:02:25.132Z,8.10
2019-03-12T17:04:54.803Z,8.00
2019-03-12T17:07:24.579Z,7.90
2019-03-12T17:09:54.255Z,7.80
2019-03-12T17:12:23.953Z,7.70
2019-03-12T17:14:53.711Z,7.70
2019-03-12T17:17:23.463Z,7.60
2019-03-12T17:19:53.083Z,7.50
2019-03-12T17:22:22.828Z,7.40
2019-03-12T17:24:52.516Z,7.30
2019-03-12T17:27:41.327Z,7.20
2019-03-12T17:30:14.188Z,7.10
2019-03-12T17:32:43.969Z,7.00
2019-03-12T17:35:15.505Z,7.00
2019-03-12T17:37:45.240Z,7.00
2019-03-12T17:40:18.258Z,6.90
2019-03-12T17:42:47.953Z,6.80
2019-03-12T17:45:17.635Z,6.70
2019-03-12T17:47:47.391Z,6.60
2019-03-12T17:50:17.607Z,6.60
2019-03-12T17:52:47.381Z,6.50
2019-03-12T17:55:17.075Z,6.40
2019-03-12T17:57:50.338Z,6.30
2019-03-12T18:00:19.629Z,6.30
2019-03-12T18:03:08.615Z,6.20
2019-03-12T18:05:38.301Z,6.20
2019-03-12T18:08:07.985Z,6.10
2019-03-12T18:10:37.707Z,6.00
2019-03-12T18:13:07.442Z,5.90
2019-03-12T18:15:37.336Z,5.80
2019-03-12T18:18:07.082Z,5.70
2019-03-12T18:20:36.709Z,5.70
2019-03-12T18:23:06.445Z,5.60
2019-03-12T18:25:36.240Z,5.60
2019-03-12T18:28:07.269Z,5.50
2019-03-12T18:30:37.149Z,5.50
2019-03-12T18:33:07.067Z,5.50
2019-03-12T18:35:36.983Z,5.50
2019-03-12T18:38:06.718Z,5.40
2019-03-12T18:40:36.675Z,5.40
2019-03-12T18:43:06.527Z,5.30
2019-03-12T18:45:36.362Z,5.30
2019-03-12T18:48:06.386Z,5.30
2019-03-12T18:50:36.425Z,5.30
2019-03-12T18:53:06.008Z,5.30
2019-03-12T18:56:04.112Z,5.30
2019-03-12T18:58:33.754Z,5.30
2019-03-12T19:01:06.697Z,5.30
2019-03-12T19:03:36.355Z,5.20
2019-03-12T19:06:06.191Z,5.20
2019-03-12T19:08:35.939Z,5.20
2019-03-12T19:11:05.872Z,5.10
2019-03-12T19:13:35.921Z,5.00
2019-03-12T19:16:05.704Z,4.90
2019-03-12T19:18:35.658Z,4.90
2019-03-12T19:21:05.985Z,4.80
2019-03-12T19:23:35.750Z,4.80
2019-03-12T19:26:06.057Z,4.70
2019-03-12T19:28:35.749Z,4.60
2019-03-12T19:31:28.020Z,4.60
2019-03-12T19:34:00.355Z,4.60
2019-03-12T19:36:31.333Z,4.50
2019-03-12T19:39:01.336Z,4.50
2019-03-12T19:41:31.029Z,4.50
2019-03-12T19:44:00.699Z,4.50
2019-03-12T19:46:30.470Z,4.40
2019-03-12T19:49:00.119Z,4.40
2019-03-12T19:51:29.891Z,4.40
2019-03-12T19:53:59.772Z,4.40
2019-03-12T19:56:29.607Z,4.40
2019-03-12T19:58:59.491Z,4.40
2019-03-12T20:01:38.821Z,4.40
2019-03-12T20:04:08.662Z,4.40
2019-03-12T20:06:38.555Z,4.40
2019-03-12T20:09:11.484Z,4.40
2019-03-12T20:12:15.235Z,4.50
2019-03-12T20:15:31.735Z,4.50
2019-03-12T20:18:39.140Z,4.50
2019-03-12T20:22:10.603Z,4.50
2019-03-12T20:25:24.560Z,4.50
2019-03-12T20:28:36.502Z,4.60
2019-03-12T20:31:42.508Z,4.60
2019-03-12T20:35:01.168Z,4.60
2019-03-12T20:38:08.046Z,4.60
2019-03-12T20:41:20.512Z,4.60
2019-03-12T20:44:43.053Z,4.70
2019-03-12T20:47:55.899Z,4.80
2019-03-12T20:51:21.827Z,5.00
2019-03-12T20:54:53.958Z,5.10
2019-03-12T20:58:02.912Z,5.20
2019-03-12T21:01:13.257Z,5.20
2019-03-12T21:04:18.690Z,5.20
2019-03-12T21:07:31.858Z,5.20
2019-03-12T21:10:57.143Z,5.20
2019-03-12T21:14:12.700Z,5.20
2019-03-12T21:17:28.553Z,5.20
2019-03-12T21:20:57.771Z,5.20
2019-03-12T21:23:49.639Z,5.20
2019-03-12T21:27:00.339Z,5.20
2019-03-12T21:29:52.420Z,5.20
2019-03-12T21:32:22.235Z,5.20
2019-03-12T21:34:52.024Z,5.30
2019-03-12T21:37:21.740Z,5.30
2019-03-12T21:39:55.824Z,5.30
2019-03-12T21:42:25.238Z,5.30
2019-03-12T21:44:54.316Z,5.30
2019-03-12T21:47:24.061Z,5.40
2019-03-12T21:49:53.775Z,5.40
2019-03-12T21:52:23.480Z,5.40
2019-03-12T21:54:59.486Z,5.40
2019-03-12T21:57:31.544Z,5.50
2019-03-12T22:00:01.145Z,5.50
2019-03-12T22:02:30.883Z,5.50
2019-03-12T22:05:00.622Z,5.50
2019-03-12T22:07:30.345Z,5.50
2019-03-12T22:10:00.031Z,5.50
2019-03-12T22:12:29.716Z,5.50
2019-03-12T22:14:59.430Z,5.40
2019-03-12T22:17:31.667Z,5.50
2019-03-12T22:20:01.327Z,5.50
2019-03-12T22:22:35.688Z,5.40
2019-03-12T22:25:06.187Z,5.40
2019-03-12T22:27:35.854Z,5.40
2019-03-12T22:30:07.348Z,5.50
2019-03-12T22:32:37.099Z,5.50
2019-03-12T22:35:06.911Z,5.50
2019-03-12T22:37:36.604Z,5.50
2019-03-12T22:40:07.301Z,5.50
2019-03-12T22:42:37.003Z,5.50
2019-03-12T22:45:07.472Z,5.50
2019-03-12T22:47:37.231Z,5.50
2019-03-12T22:50:07.394Z,5.50
2019-03-12T22:52:37.109Z,5.50
2019-03-12T22:55:06.940Z,5.60
2019-03-12T22:57:36.697Z,5.50
2019-03-12T23:00:07.711Z,5.50
2019-03-12T23:02:37.431Z,5.50
2019-03-12T23:05:07.917Z,5.50
2019-03-12T23:07:37.620Z,5.50
2019-03-12T23:10:08.150Z,5.50
2019-03-12T23:12:38.011Z,5.50
2019-03-12T23:15:09.461Z,5.50
2019-03-12T23:17:39.138Z,5.40
2019-03-12T23:20:10.590Z,5.40
2019-03-12T23:22:40.356Z,5.40
2019-03-12T23:25:10.136Z,5.40
2019-03-12T23:27:39.741Z,5.30
2019-03-12T23:30:11.992Z,5.30
2019-03-12T23:32:41.682Z,5.30
2019-03-12T23:35:11.655Z,5.20
2019-03-12T23:37:41.320Z,5.20
2019-03-12T23:40:11.492Z,5.20
2019-03-12T23:42:41.291Z,5.10
2019-03-12T23:45:11.470Z,5.10
2019-03-12T23:47:41.145Z,5.10
2019-03-12T23:50:11.872Z,5.10
2019-03-12T23:52:42.003Z,5.00
2019-03-12T23:55:12.083Z,5.00
2019-03-12T23:57:41.791Z,5.00
